Truth — WYV5559 — position and weather

sailwx.info

Track history (hours):
 
Tides and Currents Weather Stations Pressure Air Temp Water Temp Dewpoint Dewpoint Depression Visibility Wind Speed Wind Dir Waves Ship Positions

Truth

Owner: TRUTH AQUATIES INC, SANTA BARBARA, CA. More information available from US FCC via Universal Licensing System and Coast Guard Vessel Documentation Center.

Last reported at 2017-Nov-24 16:04 UTC. Time now 2017-Nov-24 18:32 UTC.
Position N 34°24' W 119°42'.

Length 22 m.

Type: Diving. MMSI: 367384840.

Date/timePositionNaut miles runAvg speedWind from/ knotsBaromVisibWave heightAir tempDewpointWater temp
2017-Nov-24 16:04N 34°24' W 119°42'0 0.0
2017-Nov-24 15:37N 34°24' W 119°42'0 0.0
2017-Nov-24 15:07N 34°24' W 119°42'0 0.0
2017-Nov-24 14:04N 34°24' W 119°42'0 0.0
2017-Nov-24 13:55N 34°24' W 119°42'0 0.0
2017-Nov-24 13:19N 34°24' W 119°42'0 0.0
2017-Nov-24 12:58N 34°24' W 119°42'0 0.0
2017-Nov-24 12:07N 34°24' W 119°42'0 0.0
2017-Nov-24 11:58N 34°24' W 119°42'0 0.0
2017-Nov-24 07:46N 34°24' W 119°42'0 0.0
2017-Nov-24 06:49N 34°24' W 119°42'0 0.0
2017-Nov-24 06:22N 34°24' W 119°42'0 0.0
2017-Nov-24 05:40N 34°24' W 119°42'0 0.0
2017-Nov-24 04:19N 34°24' W 119°42'0 0.0
2017-Nov-24 01:58N 34°24' W 119°42'0 0.0
2017-Nov-23 23:31N 34°24' W 119°42'0 0.0
2017-Nov-23 23:13N 34°24' W 119°42'0 0.0
2017-Nov-23 22:58N 34°24' W 119°42'0 0.0
2017-Nov-23 17:43N 34°24' W 119°41'0 0.2
2017-Nov-23 17:25N 34°24' W 119°42'0 0.0
2017-Nov-23 16:25N 34°24' W 119°42'0 0.0
2017-Nov-23 11:29N 34°24' W 119°42'0 0.0
2017-Nov-23 10:40N 34°24' W 119°42'0 0.0
2017-Nov-23 08:40N 34°24' W 119°42'0 0.0
2017-Nov-23 08:07N 34°24' W 119°42'0 0.0
2017-Nov-23 07:49N 34°24' W 119°42'0 0.0
2017-Nov-23 07:26N 34°24' W 119°42'0 0.0
2017-Nov-23 05:40N 34°24' W 119°42'0 0.0
2017-Nov-23 05:01N 34°24' W 119°42'0 0.0
2017-Nov-23 02:22N 34°24' W 119°42'0 0.0
2017-Nov-23 01:52N 34°24' W 119°42'0 0.0
2017-Nov-23 01:13N 34°24' W 119°42'0 0.0
2017-Nov-22 23:58N 34°24' W 119°42'0 0.0
2017-Nov-22 22:43N 34°24' W 119°42'0 0.0
2017-Nov-22 21:46N 34°24' W 119°42'0 0.0
2017-Nov-22 21:04N 34°24' W 119°42'0 0.0
2017-Nov-22 20:58N 34°24' W 119°42'0 0.0
2017-Nov-22 20:25N 34°24' W 119°42'  
2017-Nov-20 00:29N 34°24' W 119°42'0 0.0
2017-Nov-19 23:23N 34°24' W 119°42'0 0.0
2017-Nov-19 22:53N 34°24' W 119°42'0 0.0
2017-Nov-19 22:29N 34°24' W 119°42'0 0.0
2017-Nov-19 21:14N 34°24' W 119°42'0 0.0
2017-Nov-19 17:38N 34°24' W 119°42'0 0.0
2017-Nov-19 17:20N 34°24' W 119°42'0 0.0
2017-Nov-19 16:56N 34°24' W 119°42'0 0.0
2017-Nov-19 15:53N 34°24' W 119°42'0 0.0
2017-Nov-19 14:56N 34°24' W 119°42'0 0.0
2017-Nov-19 14:14N 34°24' W 119°42'0 0.0
2017-Nov-19 13:29N 34°24' W 119°42'0 0.0
2017-Nov-19 12:50N 34°24' W 119°42'0 0.0
2017-Nov-19 11:02N 34°24' W 119°42'0 0.0
2017-Nov-19 10:59N 34°24' W 119°42'0 0.0
2017-Nov-19 10:26N 34°24' W 119°42'0 0.0
2017-Nov-19 09:35N 34°24' W 119°42'0 0.0
2017-Nov-19 07:26N 34°24' W 119°42'0 0.0
2017-Nov-19 06:59N 34°24' W 119°42'0 0.0
2017-Nov-19 05:26N 34°24' W 119°42'0 0.1
2017-Nov-19 02:48N 34°24' W 119°41'3 9.2
2017-Nov-19 02:26N 34°21' W 119°43'710.0
2017-Nov-19 01:44N 34°16' W 119°47'210.2
2017-Nov-19 01:30N 34°13' W 119°49'1210.1
2017-Nov-19 00:21N 34°04' W 119°56'3 9.4
2017-Nov-19 00:00N 34°01' W 119°55'3 0.3
2017-Nov-18 15:32N 33°59' W 119°53'0 8.3
2017-Nov-18 15:30N 33°59' W 119°53'5 8.2
2017-Nov-18 14:54N 34°03' W 119°56'4 8.6
2017-Nov-18 14:27N 34°07' W 119°55'4 9.3
2017-Nov-18 13:59N 34°10' W 119°53'5 9.4
2017-Nov-18 13:29N 34°14' W 119°49'5 9.6
2017-Nov-18 12:59N 34°18' W 119°46'5 9.7
2017-Nov-18 12:30N 34°22' W 119°42'2 0.1
2017-Nov-17 18:58N 34°24' W 119°41'0 0.0
2017-Nov-16 21:35N 34°24' W 119°42'0 0.0
2017-Nov-16 21:23N 34°24' W 119°42'0 0.0
2017-Nov-16 20:59N 34°24' W 119°42'0 0.0
2017-Nov-16 20:29N 34°24' W 119°42'0 0.0
2017-Nov-16 16:41N 34°24' W 119°42'0 0.2
2017-Nov-16 16:26N 34°24' W 119°41'0 0.0
2017-Nov-16 11:45N 34°24' W 119°42'0 0.0
2017-Nov-16 11:27N 34°24' W 119°42'0 0.0
2017-Nov-16 09:15N 34°24' W 119°42'0 0.0
2017-Nov-16 08:57N 34°24' W 119°42'0 0.0
2017-Nov-16 08:27N 34°24' W 119°42'0 0.0
2017-Nov-16 07:33N 34°24' W 119°42'0 0.0
2017-Nov-16 07:30N 34°24' W 119°42'0 0.0
2017-Nov-16 06:27N 34°24' W 119°42'0 0.0
2017-Nov-16 05:54N 34°24' W 119°42'0 0.0
2017-Nov-16 05:30N 34°24' W 119°42'0 0.0
2017-Nov-16 04:45N 34°24' W 119°42'0 0.0
2017-Nov-16 04:30N 34°24' W 119°42'0 0.0
2017-Nov-16 03:21N 34°24' W 119°42'0 0.0
2017-Nov-16 02:51N 34°24' W 119°42'0 0.0
2017-Nov-16 01:54N 34°24' W 119°42'0 0.0
2017-Nov-15 19:03N 34°24' W 119°42'0 0.0
2017-Nov-15 10:00N 34°24' W 119°42'0 0.0
2017-Nov-15 09:30N 34°24' W 119°42'0 0.0
2017-Nov-15 07:42N 34°24' W 119°42'0 0.0
2017-Nov-15 07:03N 34°24' W 119°42'0 0.0
2017-Nov-15 06:48N 34°24' W 119°42'0 0.0
2017-Nov-15 06:18N 34°24' W 119°42'0 0.0
2017-Nov-15 06:00N 34°24' W 119°42'0 0.0
2017-Nov-15 03:03N 34°24' W 119°42'0 0.0
2017-Nov-15 02:39N 34°24' W 119°42'0 0.0
2017-Nov-14 23:15N 34°24' W 119°42'0 0.0
2017-Nov-14 21:21N 34°24' W 119°42'0 0.0
2017-Nov-14 18:06N 34°24' W 119°42'0 0.0
2017-Nov-14 17:36N 34°24' W 119°42'  
Track history (hours):
 
Tides and Currents Weather Stations Pressure Air Temp Water Temp Dewpoint Dewpoint Depression Visibility Wind Speed Wind Dir Waves Ship Positions

Truth

Owner: TRUTH AQUATIES INC, SANTA BARBARA, CA. More information available from US FCC via Universal Licensing System and Coast Guard Vessel Documentation Center.

Last reported at 2017-Nov-24 16:04 UTC. Time now 2017-Nov-24 18:32 UTC.
Position N 34°24' W 119°42'.

Length 22 m.

Type: Diving. MMSI: 367384840.

Date/timePositionNaut miles runAvg speedWind from/ knotsBaromVisibWave heightAir tempDewpointWater temp
2017-Nov-24 16:04N 34°24' W 119°42'0 0.0
2017-Nov-24 15:37N 34°24' W 119°42'0 0.0
2017-Nov-24 15:07N 34°24' W 119°42'0 0.0
2017-Nov-24 14:04N 34°24' W 119°42'0 0.0
2017-Nov-24 13:55N 34°24' W 119°42'0 0.0
2017-Nov-24 13:19N 34°24' W 119°42'0 0.0
2017-Nov-24 12:58N 34°24' W 119°42'0 0.0
2017-Nov-24 12:07N 34°24' W 119°42'0 0.0
2017-Nov-24 11:58N 34°24' W 119°42'0 0.0
2017-Nov-24 07:46N 34°24' W 119°42'0 0.0
2017-Nov-24 06:49N 34°24' W 119°42'0 0.0
2017-Nov-24 06:22N 34°24' W 119°42'0 0.0
2017-Nov-24 05:40N 34°24' W 119°42'0 0.0
2017-Nov-24 04:19N 34°24' W 119°42'0 0.0
2017-Nov-24 01:58N 34°24' W 119°42'0 0.0
2017-Nov-23 23:31N 34°24' W 119°42'0 0.0
2017-Nov-23 23:13N 34°24' W 119°42'0 0.0
2017-Nov-23 22:58N 34°24' W 119°42'0 0.0
2017-Nov-23 17:43N 34°24' W 119°41'0 0.2
2017-Nov-23 17:25N 34°24' W 119°42'0 0.0
2017-Nov-23 16:25N 34°24' W 119°42'0 0.0
2017-Nov-23 11:29N 34°24' W 119°42'0 0.0
2017-Nov-23 10:40N 34°24' W 119°42'0 0.0
2017-Nov-23 08:40N 34°24' W 119°42'0 0.0
2017-Nov-23 08:07N 34°24' W 119°42'0 0.0
2017-Nov-23 07:49N 34°24' W 119°42'0 0.0
2017-Nov-23 07:26N 34°24' W 119°42'0 0.0
2017-Nov-23 05:40N 34°24' W 119°42'0 0.0
2017-Nov-23 05:01N 34°24' W 119°42'0 0.0
2017-Nov-23 02:22N 34°24' W 119°42'0 0.0
2017-Nov-23 01:52N 34°24' W 119°42'0 0.0
2017-Nov-23 01:13N 34°24' W 119°42'0 0.0
2017-Nov-22 23:58N 34°24' W 119°42'0 0.0
2017-Nov-22 22:43N 34°24' W 119°42'0 0.0
2017-Nov-22 21:46N 34°24' W 119°42'0 0.0
2017-Nov-22 21:04N 34°24' W 119°42'0 0.0
2017-Nov-22 20:58N 34°24' W 119°42'0 0.0
2017-Nov-22 20:25N 34°24' W 119°42'  
2017-Nov-20 00:29N 34°24' W 119°42'0 0.0
2017-Nov-19 23:23N 34°24' W 119°42'0 0.0
2017-Nov-19 22:53N 34°24' W 119°42'0 0.0
2017-Nov-19 22:29N 34°24' W 119°42'0 0.0
2017-Nov-19 21:14N 34°24' W 119°42'0 0.0
2017-Nov-19 17:38N 34°24' W 119°42'0 0.0
2017-Nov-19 17:20N 34°24' W 119°42'0 0.0
2017-Nov-19 16:56N 34°24' W 119°42'0 0.0
2017-Nov-19 15:53N 34°24' W 119°42'0 0.0
2017-Nov-19 14:56N 34°24' W 119°42'0 0.0
2017-Nov-19 14:14N 34°24' W 119°42'0 0.0
2017-Nov-19 13:29N 34°24' W 119°42'0 0.0
2017-Nov-19 12:50N 34°24' W 119°42'0 0.0
2017-Nov-19 11:02N 34°24' W 119°42'0 0.0
2017-Nov-19 10:59N 34°24' W 119°42'0 0.0
2017-Nov-19 10:26N 34°24' W 119°42'0 0.0
2017-Nov-19 09:35N 34°24' W 119°42'0 0.0
2017-Nov-19 07:26N 34°24' W 119°42'0 0.0
2017-Nov-19 06:59N 34°24' W 119°42'0 0.0
2017-Nov-19 05:26N 34°24' W 119°42'0 0.1
2017-Nov-19 02:48N 34°24' W 119°41'3 9.2
2017-Nov-19 02:26N 34°21' W 119°43'710.0
2017-Nov-19 01:44N 34°16' W 119°47'210.2
2017-Nov-19 01:30N 34°13' W 119°49'1210.1
2017-Nov-19 00:21N 34°04' W 119°56'3 9.4
2017-Nov-19 00:00N 34°01' W 119°55'3 0.3
2017-Nov-18 15:32N 33°59' W 119°53'0 8.3
2017-Nov-18 15:30N 33°59' W 119°53'5 8.2
2017-Nov-18 14:54N 34°03' W 119°56'4 8.6
2017-Nov-18 14:27N 34°07' W 119°55'4 9.3
2017-Nov-18 13:59N 34°10' W 119°53'5 9.4
2017-Nov-18 13:29N 34°14' W 119°49'5 9.6
2017-Nov-18 12:59N 34°18' W 119°46'5 9.7
2017-Nov-18 12:30N 34°22' W 119°42'2 0.1
2017-Nov-17 18:58N 34°24' W 119°41'0 0.0
2017-Nov-16 21:35N 34°24' W 119°42'0 0.0
2017-Nov-16 21:23N 34°24' W 119°42'0 0.0
2017-Nov-16 20:59N 34°24' W 119°42'0 0.0
2017-Nov-16 20:29N 34°24' W 119°42'0 0.0
2017-Nov-16 16:41N 34°24' W 119°42'0 0.2
2017-Nov-16 16:26N 34°24' W 119°41'0 0.0
2017-Nov-16 11:45N 34°24' W 119°42'0 0.0
2017-Nov-16 11:27N 34°24' W 119°42'0 0.0
2017-Nov-16 09:15N 34°24' W 119°42'0 0.0
2017-Nov-16 08:57N 34°24' W 119°42'0 0.0
2017-Nov-16 08:27N 34°24' W 119°42'0 0.0
2017-Nov-16 07:33N 34°24' W 119°42'0 0.0
2017-Nov-16 07:30N 34°24' W 119°42'0 0.0
2017-Nov-16 06:27N 34°24' W 119°42'0 0.0
2017-Nov-16 05:54N 34°24' W 119°42'0 0.0
2017-Nov-16 05:30N 34°24' W 119°42'0 0.0
2017-Nov-16 04:45N 34°24' W 119°42'0 0.0
2017-Nov-16 04:30N 34°24' W 119°42'0 0.0
2017-Nov-16 03:21N 34°24' W 119°42'0 0.0
2017-Nov-16 02:51N 34°24' W 119°42'0 0.0
2017-Nov-16 01:54N 34°24' W 119°42'0 0.0
2017-Nov-15 19:03N 34°24' W 119°42'0 0.0
2017-Nov-15 10:00N 34°24' W 119°42'0 0.0
2017-Nov-15 09:30N 34°24' W 119°42'0 0.0
2017-Nov-15 07:42N 34°24' W 119°42'0 0.0
2017-Nov-15 07:03N 34°24' W 119°42'0 0.0
2017-Nov-15 06:48N 34°24' W 119°42'0 0.0
2017-Nov-15 06:18N 34°24' W 119°42'0 0.0
2017-Nov-15 06:00N 34°24' W 119°42'0 0.0
2017-Nov-15 03:03N 34°24' W 119°42'0 0.0
2017-Nov-15 02:39N 34°24' W 119°42'0 0.0
2017-Nov-14 23:15N 34°24' W 119°42'0 0.0
2017-Nov-14 21:21N 34°24' W 119°42'0 0.0
2017-Nov-14 18:06N 34°24' W 119°42'0 0.0
2017-Nov-14 17:36N 34°24' W 119°42'  

Dump ship's entire track history